Time;durP1;ratioP1;P1;durP2;ratioP2;P2;SDS_P1;SDS_P2;PMS_P1;PMS_P2;Temp;Humidity;BMP_temperature;BMP_pressure;BME280_temperature;BME280_humidity;BME280_pressure;Samples;Min_cycle;Max_cycle;Signal;HPM_P1;HPM_P2
2021/10/20 00:00:47;;;;;;;6.50;5.90;;;13.80;99.90;;;;;;5134925;28;20914;-62
2021/10/20 00:03:19;;;;;;;6.03;5.53;;;13.80;99.90;;;;;;5119069;28;20459;-63
2021/10/20 00:05:47;;;;;;;9.70;6.27;;;13.80;99.90;;;;;;5119469;28;20900;-63
2021/10/20 00:08:14;;;;;;;10.77;7.40;;;13.80;99.90;;;;;;5119427;28;20459;-62
2021/10/20 00:10:41;;;;;;;5.43;4.93;;;13.80;99.90;;;;;;5119521;28;20922;-62
2021/10/20 00:13:08;;;;;;;7.40;5.40;;;13.80;99.90;;;;;;5119115;28;20455;-62
2021/10/20 00:15:37;;;;;;;8.27;6.80;;;13.80;99.90;;;;;;5122188;28;20516;-62
2021/10/20 00:18:06;;;;;;;6.10;5.50;;;13.70;99.90;;;;;;5139920;28;20490;-62
2021/10/20 00:20:33;;;;;;;5.67;5.03;;;13.70;99.90;;;;;;5139834;28;20437;-62
2021/10/20 00:23:00;;;;;;;8.20;6.20;;;13.70;99.90;;;;;;5096452;27;1219827;-62
2021/10/20 00:25:27;;;;;;;6.47;5.77;;;13.70;99.90;;;;;;5140678;27;20209;-62
2021/10/20 00:27:55;;;;;;;8.10;6.50;;;13.60;99.90;;;;;;5140392;27;20454;-62
2021/10/20 00:30:22;;;;;;;6.63;6.03;;;13.70;99.90;;;;;;5141141;27;20756;-62
2021/10/20 00:32:52;;;;;;;6.80;5.53;;;13.70;99.90;;;;;;5140813;27;20528;-62
2021/10/20 00:35:19;;;;;;;7.10;6.43;;;13.60;99.90;;;;;;5140464;27;20483;-62
2021/10/20 00:37:47;;;;;;;6.37;5.70;;;13.60;99.90;;;;;;5139912;27;20459;-62
2021/10/20 00:40:17;;;;;;;6.63;5.93;;;13.60;99.90;;;;;;5140355;27;20462;-62
2021/10/20 00:42:44;;;;;;;7.50;5.80;;;13.60;99.90;;;;;;5140843;27;20527;-62
2021/10/20 00:45:12;;;;;;;6.43;5.33;;;13.60;99.90;;;;;;5140257;27;20508;-63
2021/10/20 00:47:39;;;;;;;7.00;5.03;;;13.60;99.90;;;;;;5140209;27;20508;-62
2021/10/20 00:50:11;;;;;;;7.23;6.33;;;13.60;99.90;;;;;;5140600;27;20436;-62
2021/10/20 00:52:41;;;;;;;8.63;6.10;;;13.60;99.90;;;;;;5140722;27;20458;-62
2021/10/20 00:55:12;;;;;;;7.40;6.40;;;13.50;99.90;;;;;;5139994;27;20541;-62
2021/10/20 00:57:41;;;;;;;7.60;6.07;;;13.60;99.90;;;;;;5140240;27;20749;-64
2021/10/20 01:00:12;;;;;;;5.70;5.17;;;13.60;99.90;;;;;;5140095;27;20547;-63
2021/10/20 01:02:40;;;;;;;7.10;6.13;;;13.60;99.90;;;;;;5099292;28;20439;-62
2021/10/20 01:05:11;;;;;;;6.13;5.53;;;13.60;99.90;;;;;;5098421;28;20836;-62
2021/10/20 01:07:41;;;;;;;10.83;7.90;;;13.60;99.90;;;;;;5098982;28;20464;-62
2021/10/20 01:10:10;;;;;;;8.53;6.73;;;13.60;99.90;;;;;;5098717;28;20827;-62
2021/10/20 01:12:38;;;;;;;5.90;5.30;;;13.70;99.90;;;;;;5099172;28;20762;-62
2021/10/20 01:15:07;;;;;;;19.20;8.60;;;13.60;99.90;;;;;;5099033;28;20464;-62
2021/10/20 01:17:34;;;;;;;6.70;6.00;;;13.60;99.90;;;;;;5138207;27;20463;-63
2021/10/20 01:20:03;;;;;;;7.93;6.17;;;13.60;99.90;;;;;;5139573;27;20522;-62
2021/10/20 01:22:33;;;;;;;12.60;6.40;;;13.50;99.90;;;;;;5140082;27;20461;-62
2021/10/20 01:25:00;;;;;;;9.43;8.00;;;13.50;99.90;;;;;;5139754;27;20437;-62
2021/10/20 01:27:28;;;;;;;6.70;6.00;;;13.40;99.90;;;;;;5139734;27;20454;-62
2021/10/20 01:29:57;;;;;;;6.73;5.07;;;13.50;99.90;;;;;;5139782;27;20515;-62
2021/10/20 01:32:26;;;;;;;5.90;5.40;;;13.40;99.90;;;;;;5139932;27;20458;-62
2021/10/20 01:34:53;;;;;;;6.23;5.63;;;13.30;99.90;;;;;;5139370;27;20905;-62
2021/10/20 01:37:22;;;;;;;6.10;5.33;;;13.40;99.90;;;;;;5139884;27;20519;-62
2021/10/20 01:39:56;;;;;;;8.07;5.50;;;13.40;99.90;;;;;;5138424;27;20551;-62
2021/10/20 01:42:24;;;;;;;6.40;5.87;;;13.40;99.90;;;;;;5139609;27;20548;-62
2021/10/20 01:44:52;;;;;;;6.70;6.10;;;13.40;99.90;;;;;;5139146;27;20433;-63
2021/10/20 01:47:19;;;;;;;5.93;5.33;;;13.40;99.90;;;;;;5138965;27;20436;-62
2021/10/20 01:49:46;;;;;;;6.10;5.40;;;13.40;99.90;;;;;;5139494;27;20907;-62
2021/10/20 01:52:13;;;;;;;6.83;6.13;;;13.40;99.90;;;;;;5139155;27;20459;-62
2021/10/20 01:54:40;;;;;;;5.90;5.10;;;13.40;99.90;;;;;;5139297;27;20885;-62
2021/10/20 01:57:11;;;;;;;5.70;5.03;;;13.40;99.90;;;;;;5138920;27;20915;-63
2021/10/20 01:59:38;;;;;;;6.87;5.97;;;13.40;99.90;;;;;;5138925;27;20563;-62
2021/10/20 02:02:15;;;;;;;7.10;6.17;;;13.40;99.90;;;;;;5122011;27;20459;-63
2021/10/20 02:04:42;;;;;;;5.87;5.27;;;13.40;99.90;;;;;;5118835;28;20483;-63
2021/10/20 02:07:12;;;;;;;6.70;6.10;;;13.50;99.90;;;;;;5118163;28;20438;-63
2021/10/20 02:09:39;;;;;;;8.60;6.40;;;13.40;99.90;;;;;;5118461;28;20480;-63
2021/10/20 02:12:08;;;;;;;7.03;6.43;;;13.40;99.90;;;;;;5118447;28;20468;-62
2021/10/20 02:14:38;;;;;;;8.10;6.17;;;13.40;99.90;;;;;;5118046;28;20494;-63
2021/10/20 02:17:08;;;;;;;6.67;5.97;;;13.30;99.90;;;;;;5133602;27;20770;-62
2021/10/20 02:19:35;;;;;;;6.80;5.83;;;13.30;99.90;;;;;;5138771;27;20496;-64
2021/10/20 02:22:06;;;;;;;8.03;6.03;;;13.30;99.90;;;;;;5138377;27;20515;-63
2021/10/20 02:24:33;;;;;;;7.13;6.43;;;13.20;99.90;;;;;;5138744;27;20437;-63
2021/10/20 02:27:00;;;;;;;5.87;5.27;;;13.20;99.90;;;;;;5138115;27;20515;-62
2021/10/20 02:29:31;;;;;;;7.33;6.73;;;13.30;99.90;;;;;;5138399;27;20424;-63
2021/10/20 02:31:59;;;;;;;8.00;5.97;;;13.20;99.90;;;;;;5138743;27;20440;-64
2021/10/20 02:34:26;;;;;;;8.67;6.90;;;13.20;99.90;;;;;;5138567;27;20889;-63
2021/10/20 02:36:54;;;;;;;7.30;6.37;;;13.30;99.90;;;;;;5138644;27;20455;-63
2021/10/20 02:39:21;;;;;;;6.53;5.93;;;13.30;99.90;;;;;;5138663;27;20496;-63
2021/10/20 02:41:48;;;;;;;6.90;6.20;;;13.30;99.90;;;;;;5138538;27;20528;-63
2021/10/20 02:44:15;;;;;;;8.70;5.53;;;13.20;99.90;;;;;;5138429;27;20859;-63
2021/10/20 02:46:42;;;;;;;6.97;5.97;;;13.20;99.90;;;;;;5138411;27;20516;-63
2021/10/20 02:49:10;;;;;;;9.50;5.57;;;13.20;99.90;;;;;;5138635;27;20966;-62
2021/10/20 02:51:38;;;;;;;7.63;6.30;;;13.30;99.90;;;;;;5137967;27;20827;-63
2021/10/20 02:54:05;;;;;;;8.13;6.20;;;13.30;99.90;;;;;;5138271;27;20458;-63
2021/10/20 02:56:32;;;;;;;10.00;6.43;;;13.30;99.90;;;;;;5138069;27;20531;-63
2021/10/20 02:58:59;;;;;;;7.90;7.10;;;13.30;99.90;;;;;;5138431;27;20487;-63
2021/10/20 03:01:26;;;;;;;7.03;6.33;;;13.30;99.90;;;;;;5127009;27;20456;-64
2021/10/20 03:03:53;;;;;;;8.93;6.10;;;13.20;99.90;;;;;;5117277;28;20463;-63
2021/10/20 03:06:24;;;;;;;6.70;6.10;;;13.20;99.90;;;;;;5117303;28;20499;-63
2021/10/20 03:08:51;;;;;;;7.27;6.57;;;13.20;99.90;;;;;;5117519;28;20488;-63
2021/10/20 03:11:18;;;;;;;7.13;5.83;;;13.20;99.90;;;;;;5117413;28;20471;-63
2021/10/20 03:13:45;;;;;;;6.87;5.60;;;13.20;99.90;;;;;;5117855;28;20715;-65
2021/10/20 03:16:12;;;;;;;7.47;6.60;;;13.20;99.90;;;;;;5125447;28;20954;-63
2021/10/20 03:18:39;;;;;;;6.47;5.83;;;13.20;99.90;;;;;;5137673;28;20462;-63
2021/10/20 03:21:06;;;;;;;12.67;6.73;;;13.20;99.90;;;;;;5137804;28;20466;-63
2021/10/20 03:23:35;;;;;;;7.10;6.33;;;13.10;99.90;;;;;;5137385;27;20941;-63
2021/10/20 03:26:05;;;;;;;5.83;5.33;;;13.20;99.90;;;;;;5137653;28;20458;-64
2021/10/20 03:28:32;;;;;;;6.30;5.70;;;13.10;99.90;;;;;;5137703;28;20516;-63
2021/10/20 03:30:59;;;;;;;11.03;6.30;;;13.10;99.90;;;;;;5137803;28;20502;-63
2021/10/20 03:33:26;;;;;;;7.90;6.43;;;13.10;99.90;;;;;;5137815;28;20885;-63
2021/10/20 03:35:53;;;;;;;6.77;6.07;;;13.10;99.90;;;;;;5137391;28;20462;-63
2021/10/20 03:38:20;;;;;;;6.90;6.20;;;13.10;99.90;;;;;;5137397;28;20462;-64
2021/10/20 03:40:49;;;;;;;6.73;5.80;;;13.10;99.90;;;;;;5137271;28;20489;-63
2021/10/20 03:43:16;;;;;;;9.40;5.90;;;13.10;99.90;;;;;;5137937;28;20458;-64
2021/10/20 03:45:43;;;;;;;6.27;5.67;;;13.10;99.90;;;;;;5138048;28;20455;-64
2021/10/20 03:48:10;;;;;;;7.53;6.73;;;13.20;99.90;;;;;;5137471;28;20458;-63
2021/10/20 03:50:37;;;;;;;6.93;6.23;;;13.20;99.90;;;;;;5137502;28;20580;-64
2021/10/20 03:53:04;;;;;;;6.60;5.90;;;13.20;99.90;;;;;;5137683;28;20462;-63
2021/10/20 03:55:31;;;;;;;6.70;5.90;;;13.20;99.90;;;;;;5137836;28;20458;-64
2021/10/20 03:58:01;;;;;;;6.60;6.00;;;13.30;99.90;;;;;;5137362;28;20810;-64
2021/10/20 04:00:28;;;;;;;5.70;5.20;;;13.30;99.90;;;;;;5134820;28;22003;-64
2021/10/20 04:03:01;;;;;;;6.93;6.23;;;13.30;99.90;;;;;;5117649;28;20459;-63
2021/10/20 04:05:28;;;;;;;7.37;6.60;;;13.30;99.90;;;;;;5121002;28;20879;-63
2021/10/20 04:07:55;;;;;;;8.57;6.00;;;13.20;99.90;;;;;;5120529;28;20430;-63
2021/10/20 04:10:24;;;;;;;6.50;5.90;;;13.20;99.90;;;;;;5120433;28;20463;-64
2021/10/20 04:12:51;;;;;;;6.93;5.97;;;13.20;99.90;;;;;;5120835;28;20459;-63
2021/10/20 04:15:26;;;;;;;6.47;5.07;;;13.20;99.90;;;;;;5121399;27;20463;-64
2021/10/20 04:17:54;;;;;;;6.80;6.07;;;13.30;99.90;;;;;;5140596;27;20441;-65
2021/10/20 04:20:25;;;;;;;6.97;6.20;;;13.30;99.90;;;;;;5140975;27;20547;-63
2021/10/20 04:22:52;;;;;;;6.43;5.83;;;13.30;99.90;;;;;;5141037;27;20489;-64
2021/10/20 04:25:20;;;;;;;6.33;5.70;;;13.30;99.90;;;;;;5141272;27;20811;-64
2021/10/20 04:27:49;;;;;;;6.80;6.10;;;13.40;99.90;;;;;;5140782;27;20461;-64
2021/10/20 04:30:17;;;;;;;9.70;6.17;;;13.50;99.90;;;;;;5141111;27;20459;-64
2021/10/20 04:32:47;;;;;;;5.90;5.20;;;13.50;99.90;;;;;;5140730;27;20535;-64
2021/10/20 04:35:15;;;;;;;7.93;5.90;;;13.40;99.90;;;;;;5140915;27;20527;-64
2021/10/20 04:37:42;;;;;;;7.60;6.37;;;13.40;99.90;;;;;;5140994;27;20860;-64
2021/10/20 04:40:10;;;;;;;5.90;5.40;;;13.50;99.90;;;;;;5140483;27;20490;-64
2021/10/20 04:42:40;;;;;;;7.00;5.83;;;13.50;99.90;;;;;;5140725;27;20458;-64
2021/10/20 04:45:08;;;;;;;6.07;5.47;;;13.50;99.90;;;;;;5140640;27;20462;-64
2021/10/20 04:47:35;;;;;;;7.37;6.67;;;13.50;99.90;;;;;;5140881;27;20811;-65
2021/10/20 04:50:06;;;;;;;8.47;5.63;;;13.50;99.90;;;;;;5140410;27;20503;-65
2021/10/20 04:52:35;;;;;;;6.93;5.50;;;13.50;99.90;;;;;;5140157;27;20509;-64
2021/10/20 04:55:02;;;;;;;6.00;5.50;;;13.50;99.90;;;;;;5140279;27;20480;-64
2021/10/20 04:57:29;;;;;;;11.00;5.60;;;13.50;99.90;;;;;;5139893;27;20462;-64
2021/10/20 04:59:57;;;;;;;7.60;6.30;;;13.60;99.90;;;;;;5140041;27;20754;-64
2021/10/20 05:02:24;;;;;;;6.13;5.53;;;13.60;99.90;;;;;;5120497;27;20455;-63
2021/10/20 05:04:51;;;;;;;8.50;5.70;;;13.60;99.90;;;;;;5119824;28;20524;-64
2021/10/20 05:07:22;;;;;;;5.83;5.23;;;13.60;99.90;;;;;;5119639;28;20464;-64
2021/10/20 05:09:49;;;;;;;6.00;5.40;;;13.70;99.90;;;;;;5119811;28;20509;-63
2021/10/20 05:12:19;;;;;;;7.80;6.77;;;13.70;99.90;;;;;;5119215;28;20546;-63
2021/10/20 05:14:46;;;;;;;6.43;5.80;;;13.70;99.90;;;;;;5118518;28;20459;-63
2021/10/20 05:17:21;;;;;;;8.93;6.43;;;13.70;99.90;;;;;;5136417;27;20520;-64
2021/10/20 05:19:49;;;;;;;6.97;6.27;;;13.80;99.90;;;;;;5140038;27;20521;-63
2021/10/20 05:22:16;;;;;;;6.13;5.63;;;13.80;99.90;;;;;;5139547;27;20940;-64
2021/10/20 05:24:45;;;;;;;7.73;5.93;;;13.90;99.90;;;;;;5139661;27;20760;-63
2021/10/20 05:27:14;;;;;;;7.07;5.27;;;13.90;99.90;;;;;;5140066;27;20489;-63
2021/10/20 05:29:41;;;;;;;5.90;5.30;;;13.90;99.90;;;;;;5139760;27;20479;-65
2021/10/20 05:32:08;;;;;;;7.80;5.77;;;14.00;99.90;;;;;;5139322;27;20459;-65
2021/10/20 05:34:35;;;;;;;10.43;6.57;;;14.00;99.90;;;;;;5139607;27;20543;-63
2021/10/20 05:37:04;;;;;;;5.83;5.27;;;14.00;99.90;;;;;;5139589;27;20476;-63
2021/10/20 05:39:31;;;;;;;6.73;5.53;;;14.00;99.90;;;;;;5139376;27;20519;-64
2021/10/20 05:41:59;;;;;;;5.60;5.07;;;14.10;99.90;;;;;;5138904;27;20463;-64
2021/10/20 05:44:26;;;;;;;6.23;5.57;;;14.10;99.90;;;;;;5132524;27;20857;-63
2021/10/20 05:46:53;;;;;;;7.30;6.67;;;14.10;99.90;;;;;;5132724;27;20464;-62
2021/10/20 05:49:22;;;;;;;6.83;5.40;;;14.10;99.90;;;;;;5128272;27;20450;-63
2021/10/20 05:51:51;;;;;;;8.27;6.33;;;14.10;99.90;;;;;;5129347;27;20458;-63
2021/10/20 05:54:21;;;;;;;7.10;6.40;;;14.00;99.90;;;;;;5127668;27;20723;-62
2021/10/20 05:56:48;;;;;;;6.30;5.70;;;14.00;99.90;;;;;;5127296;27;20429;-62
2021/10/20 05:59:21;;;;;;;6.57;5.97;;;14.00;99.90;;;;;;5128287;27;20504;-64
2021/10/20 06:01:48;;;;;;;10.33;5.97;;;14.00;99.90;;;;;;5126322;27;20478;-62
2021/10/20 06:04:16;;;;;;;6.37;5.77;;;14.00;99.90;;;;;;5124636;27;20729;-61
2021/10/20 06:06:43;;;;;;;6.63;5.70;;;14.00;99.90;;;;;;5128000;27;20516;-62
2021/10/20 06:09:13;;;;;;;7.33;5.87;;;14.00;99.90;;;;;;5128814;27;20443;-62
2021/10/20 06:11:40;;;;;;;6.33;5.73;;;14.00;99.90;;;;;;5128154;27;20452;-62
2021/10/20 06:14:10;;;;;;;6.63;5.70;;;14.10;99.90;;;;;;5126477;27;20516;-62
2021/10/20 06:16:41;;;;;;;6.63;5.63;;;14.10;99.90;;;;;;5118780;27;20432;-60
2021/10/20 06:19:11;;;;;;;6.40;5.80;;;14.10;99.90;;;;;;5118298;28;20430;-61
2021/10/20 06:21:38;;;;;;;7.37;6.00;;;14.10;99.90;;;;;;5118355;28;20900;-59
2021/10/20 06:24:05;;;;;;;6.67;6.07;;;14.10;99.90;;;;;;5126953;27;20516;-59
2021/10/20 06:26:33;;;;;;;8.40;6.40;;;14.10;99.90;;;;;;5127522;27;20450;-60
2021/10/20 06:29:03;;;;;;;6.13;5.53;;;14.20;99.90;;;;;;5128450;27;20425;-61
2021/10/20 06:31:33;;;;;;;6.40;5.80;;;14.20;99.90;;;;;;5120533;27;20804;-61
2021/10/20 06:34:06;;;;;;;7.97;7.00;;;14.20;99.90;;;;;;5117806;28;20509;-60
2021/10/20 06:36:41;;;;;;;6.50;5.87;;;14.20;99.90;;;;;;5117751;28;20442;-61
2021/10/20 06:39:08;;;;;;;5.70;5.23;;;14.20;99.90;;;;;;5117880;28;20890;-60
2021/10/20 06:41:38;;;;;;;7.83;6.90;;;14.20;99.90;;;;;;5118341;28;20540;-59
2021/10/20 06:44:07;;;;;;;7.23;6.53;;;14.30;99.90;;;;;;5117393;28;20459;-60
2021/10/20 06:46:34;;;;;;;6.07;5.23;;;14.20;99.90;;;;;;5117801;28;20874;-58
2021/10/20 06:49:06;;;;;;;6.90;5.43;;;14.20;99.90;;;;;;5117850;28;20468;-60
2021/10/20 06:51:33;;;;;;;7.13;6.43;;;14.20;88.80;;;;;;5117939;28;20769;-60
2021/10/20 06:54:00;;;;;;;7.93;6.50;;;14.30;77.00;;;;;;5117519;28;20794;-59
2021/10/20 06:56:27;;;;;;;8.20;6.20;;;14.20;95.20;;;;;;5117418;28;20464;-59
2021/10/20 06:58:58;;;;;;;7.30;6.60;;;14.20;81.80;;;;;;5117920;28;20463;-59
2021/10/20 07:01:28;;;;;;;6.83;6.17;;;14.20;87.50;;;;;;5117324;28;20532;-57
2021/10/20 07:03:55;;;;;;;6.70;6.10;;;14.20;99.90;;;;;;5117651;28;20462;-56
2021/10/20 07:06:27;;;;;;;6.70;6.00;;;14.20;99.90;;;;;;5117552;28;20437;-56
2021/10/20 07:08:55;;;;;;;7.27;6.37;;;14.20;99.90;;;;;;5117471;28;20512;-61
2021/10/20 07:11:22;;;;;;;6.53;5.90;;;14.30;99.90;;;;;;5117232;28;20455;-55
2021/10/20 07:13:53;;;;;;;6.83;6.13;;;14.40;99.90;;;;;;5117422;28;20495;-59
2021/10/20 07:16:20;;;;;;;6.93;6.33;;;14.50;99.90;;;;;;5126324;28;20462;-59
2021/10/20 07:18:47;;;;;;;8.37;6.63;;;14.60;75.70;;;;;;5134381;28;20462;-58
2021/10/20 07:21:14;;;;;;;6.00;5.40;;;14.70;23.20;;;;;;5115547;28;20483;-59
2021/10/20 07:23:42;;;;;;;6.87;6.27;;;14.80;53.80;;;;;;5115156;28;20491;-57
2021/10/20 07:26:09;;;;;;;10.50;6.50;;;14.90;27.70;;;;;;5116383;28;20460;-56
2021/10/20 07:28:37;;;;;;;7.40;5.63;;;14.90;3.30;;;;;;5116840;28;20517;-57
2021/10/20 07:31:04;;;;;;;6.47;5.63;;;14.90;6.50;;;;;;5116785;28;20463;-55
2021/10/20 07:33:31;;;;;;;7.80;6.80;;;14.90;18.80;;;;;;5117012;28;20469;-51
2021/10/20 07:35:58;;;;;;;7.13;6.43;;;14.80;24.10;;;;;;5115752;28;20517;-52
2021/10/20 07:38:27;;;;;;;10.87;9.87;;;14.90;61.80;;;;;;5118347;28;20487;-57
2021/10/20 07:40:57;;;;;;;8.80;8.00;;;14.90;52.30;;;;;;5120183;28;20502;-55
2021/10/20 07:43:24;;;;;;;11.03;8.23;;;14.90;51.60;;;;;;5121106;28;20491;-57
2021/10/20 07:45:51;;;;;;;11.23;10.03;;;15.10;25.00;;;;;;5120989;28;20489;-58
2021/10/20 07:48:18;;;;;;;7.37;5.87;;;15.10;19.10;;;;;;5120936;28;20474;-55
2021/10/20 07:50:48;;;;;;;6.90;6.20;;;15.10;26.70;;;;;;5120472;28;20430;-56
2021/10/20 07:53:18;;;;;;;9.10;6.37;;;15.10;20.80;;;;;;5120806;28;20495;-55
2021/10/20 07:55:45;;;;;;;43.33;23.23;;;15.10;24.90;;;;;;5120916;28;20521;-49
2021/10/20 07:58:13;;;;;;;10.30;9.30;;;15.10;38.70;;;;;;5120767;28;20860;-56
2021/10/20 08:00:40;;;;;;;9.13;8.20;;;15.10;41.70;;;;;;5111723;28;20479;-48
2021/10/20 08:03:15;;;;;;;10.37;9.23;;;15.10;24.00;;;;;;5120818;28;20459;-49
2021/10/20 08:05:42;;;;;;;8.10;7.30;;;15.20;9.80;;;;;;5121143;28;20458;-55
2021/10/20 08:08:10;;;;;;;13.20;10.80;;;15.20;15.80;;;;;;5120532;28;20433;-55
2021/10/20 08:10:40;;;;;;;10.30;7.17;;;15.20;28.10;;;;;;5120814;28;20884;-54
2021/10/20 08:13:07;;;;;;;7.73;6.93;;;15.30;20.60;;;;;;5120606;28;20548;-48
2021/10/20 08:15:36;;;;;;;9.10;7.00;;;15.30;24.60;;;;;;5120067;28;20884;-51
2021/10/20 08:18:04;;;;;;;7.80;7.10;;;15.40;9.50;;;;;;5120392;28;20471;-55
2021/10/20 08:20:34;;;;;;;9.43;8.43;;;15.40;1.00;;;;;;5120608;28;20514;-50
2021/10/20 08:23:05;;;;;;;10.50;6.97;;;15.30;18.60;;;;;;5120391;28;20490;-47
2021/10/20 08:25:34;;;;;;;7.83;7.10;;;15.20;14.60;;;;;;5099954;28;20456;-51
2021/10/20 08:28:01;;;;;;;8.43;7.40;;;15.20;41.90;;;;;;5099806;28;20869;-51
2021/10/20 08:30:31;;;;;;;7.17;6.53;;;15.20;72.20;;;;;;5099726;28;20777;-50
2021/10/20 08:33:03;;;;;;;6.87;6.17;;;15.20;85.60;;;;;;5099889;28;20760;-54
2021/10/20 08:35:33;;;;;;;6.87;6.27;;;15.20;90.80;;;;;;5099767;28;20535;-53
2021/10/20 08:38:03;;;;;;;8.43;6.00;;;15.10;55.10;;;;;;5099823;28;20435;-53
2021/10/20 08:40:36;;;;;;;7.80;7.00;;;15.10;99.90;;;;;;5099513;28;20591;-51
2021/10/20 08:43:05;;;;;;;7.80;6.47;;;15.10;99.90;;;;;;5099712;28;20468;-51
2021/10/20 08:45:32;;;;;;;9.00;7.03;;;15.10;99.90;;;;;;5099626;28;20471;-53
2021/10/20 08:48:00;;;;;;;11.57;10.37;;;15.10;93.90;;;;;;5099417;28;20456;-49
2021/10/20 08:50:32;;;;;;;8.50;7.20;;;15.10;66.60;;;;;;5098394;28;20783;-51
2021/10/20 08:52:59;;;;;;;11.17;9.67;;;15.20;63.80;;;;;;5099554;28;20439;-53
2021/10/20 08:55:29;;;;;;;7.77;6.97;;;15.10;50.30;;;;;;5099359;28;20460;-55
2021/10/20 08:57:59;;;;;;;8.53;7.60;;;15.10;48.30;;;;;;5105030;28;20780;-49
2021/10/20 09:00:32;;;;;;;7.63;6.20;;;15.20;63.90;;;;;;5118504;27;20562;-53
2021/10/20 09:03:01;;;;;;;9.37;8.40;;;15.30;28.00;;;;;;5118828;28;20782;-52
2021/10/20 09:05:30;;;;;;;8.70;7.80;;;15.40;8.90;;;;;;5118395;28;20434;-49
2021/10/20 09:07:57;;;;;;;8.93;6.80;;;15.40;7.20;;;;;;5119305;28;20809;-47
2021/10/20 09:10:29;;;;;;;9.07;7.23;;;15.50;1.00;;;;;;5119334;28;20517;-53
2021/10/20 09:12:59;;;;;;;8.77;7.00;;;15.50;1.00;;;;;;5119771;28;20467;-48
2021/10/20 09:15:28;;;;;;;8.27;7.43;;;15.50;1.00;;;;;;5119402;28;20520;-52
2021/10/20 09:18:00;;;;;;;15.60;14.00;;;15.50;1.00;;;;;;5119111;28;20459;-47
2021/10/20 09:20:32;;;;;;;13.97;8.80;;;15.40;1.00;;;;;;5118959;28;20521;-46
2021/10/20 09:23:03;;;;;;;10.90;8.23;;;15.40;1.00;;;;;;5118952;28;20577;-47
2021/10/20 09:25:47;;;;;;;8.40;6.90;;;15.40;1.00;;;;;;5119288;28;20486;-47
2021/10/20 09:28:20;;;;;;;6.83;6.10;;;15.40;1.00;;;;;;5119373;27;20463;-53
2021/10/20 09:30:49;;;;;;;7.00;6.33;;;15.50;1.00;;;;;;5118865;28;20451;-48
2021/10/20 09:33:16;;;;;;;14.70;7.67;;;15.60;1.00;;;;;;5119101;28;20455;-50
2021/10/20 09:35:47;;;;;;;9.80;5.80;;;15.70;1.00;;;;;;5119097;28;20438;-52
2021/10/20 09:38:24;;;;;;;7.23;6.50;;;15.80;1.00;;;;;;5118882;28;20861;-52
2021/10/20 09:40:54;;;;;;;9.17;6.60;;;15.70;1.00;;;;;;5118736;28;20525;-54
2021/10/20 09:43:32;;;;;;;9.40;5.80;;;15.60;1.00;;;;;;5119654;27;20474;-50
2021/10/20 09:45:58;;;;;;;6.87;6.17;;;15.50;1.00;;;;;;5118658;28;20528;-47
2021/10/20 09:48:27;;;;;;;7.90;5.73;;;15.60;1.00;;;;;;5118577;28;20434;-51
2021/10/20 09:51:02;;;;;;;6.80;6.10;;;15.60;1.00;;;;;;5119088;28;20554;-51
2021/10/20 09:53:31;;;;;;;7.00;6.30;;;15.60;1.00;;;;;;5118778;28;20467;-47
2021/10/20 09:56:00;;;;;;;6.83;6.23;;;15.60;1.00;;;;;;5118589;28;20466;-50
2021/10/20 09:58:31;;;;;;;7.83;5.60;;;15.60;1.00;;;;;;5118266;28;20460;-48
2021/10/20 10:01:03;;;;;;;9.93;6.33;;;15.50;1.00;;;;;;5117723;28;20559;-57
2021/10/20 10:03:31;;;;;;;7.00;6.30;;;15.50;1.00;;;;;;5130362;27;20545;-49
2021/10/20 10:06:00;;;;;;;7.80;6.53;;;15.50;1.00;;;;;;5118733;28;20481;-55
2021/10/20 10:08:27;;;;;;;8.07;6.33;;;15.50;1.00;;;;;;5118309;28;20890;-51
2021/10/20 10:10:59;;;;;;;9.17;6.60;;;15.50;1.00;;;;;;5118412;28;20795;-53
2021/10/20 10:13:29;;;;;;;7.00;6.13;;;15.70;1.00;;;;;;5118124;28;20463;-53
2021/10/20 10:16:09;;;;;;;7.83;7.03;;;15.70;1.00;;;;;;5123987;27;20719;-51
2021/10/20 10:18:39;;;;;;;10.23;6.60;;;15.70;1.00;;;;;;5138491;27;20462;-54
2021/10/20 10:21:37;;;;;;;8.40;6.67;;;15.70;1.00;;;;;;5138772;27;20497;-57
2021/10/20 10:24:09;;;;;;;7.23;6.23;;;15.80;1.00;;;;;;5138477;27;20482;-53
2021/10/20 10:26:37;;;;;;;7.40;6.70;;;15.90;1.00;;;;;;5138966;27;20450;-51
2021/10/20 10:29:12;;;;;;;7.53;6.67;;;15.80;1.00;;;;;;5138658;27;20433;-47
2021/10/20 10:31:42;;;;;;;6.87;5.63;;;15.80;1.00;;;;;;5138149;27;20904;-54
2021/10/20 10:34:22;;;;;;;8.10;6.90;;;15.90;1.00;;;;;;5138389;27;20461;-54
2021/10/20 10:36:54;;;;;;;7.67;6.97;;;15.70;1.00;;;;;;5138674;27;20454;-53
2021/10/20 10:39:24;;;;;;;7.80;7.10;;;15.60;19.60;;;;;;5138582;27;20516;-60
2021/10/20 10:41:53;;;;;;;8.90;7.60;;;15.40;99.90;;;;;;5138006;27;20490;-60
2021/10/20 10:44:22;;;;;;;8.57;7.07;;;15.30;99.90;;;;;;5138561;27;20459;-63
2021/10/20 10:47:05;;;;;;;8.87;7.97;;;15.20;99.90;;;;;;5138552;27;20477;-60
2021/10/20 10:49:40;;;;;;;7.80;7.00;;;15.10;1.00;;;;;;5138391;27;20535;-62
2021/10/20 10:52:34;;;;;;;9.17;8.37;;;15.00;99.90;;;;;;5137816;27;20455;-62
2021/10/20 10:55:12;;;;;;;10.17;8.53;;;14.90;1.00;;;;;;5138610;27;20935;-61
2021/10/20 10:57:50;;;;;;;8.30;7.57;;;14.90;1.00;;;;;;5134884;27;20455;-61
2021/10/20 11:00:36;;;;;;;8.93;7.83;;;14.90;1.00;;;;;;5115579;28;20484;-61
2021/10/20 11:03:18;;;;;;;9.10;8.20;;;15.00;1.00;;;;;;5097141;28;20942;-62
2021/10/20 11:05:52;;;;;;;9.30;8.40;;;15.20;99.90;;;;;;5097346;28;20522;-61
2021/10/20 11:08:21;;;;;;;9.17;8.27;;;15.30;99.90;;;;;;5096757;28;20471;-62
2021/10/20 11:10:53;;;;;;;10.50;9.50;;;15.30;1.00;;;;;;5096955;28;20464;-62
2021/10/20 11:13:25;;;;;;;9.93;8.60;;;15.10;99.90;;;;;;5100882;28;20486;-62
2021/10/20 11:15:52;;;;;;;9.30;8.33;;;15.00;99.90;;;;;;5111430;27;20469;-63
2021/10/20 11:18:21;;;;;;;8.90;8.10;;;15.00;99.90;;;;;;5141950;27;20472;-63
2021/10/20 11:20:50;;;;;;;9.43;8.50;;;15.10;99.90;;;;;;5142219;27;20501;-62
2021/10/20 11:23:23;;;;;;;10.00;9.10;;;15.20;99.90;;;;;;5141399;27;20791;-63
2021/10/20 11:26:00;;;;;;;10.13;8.20;;;15.20;1.00;;;;;;5141809;27;20889;-64
2021/10/20 11:28:34;;;;;;;10.23;8.77;;;15.20;99.90;;;;;;5141994;27;20531;-65
2021/10/20 11:31:09;;;;;;;9.47;8.57;;;15.10;1.00;;;;;;5141608;27;20450;-63
2021/10/20 11:33:36;;;;;;;10.03;8.93;;;15.10;60.50;;;;;;5141660;27;20448;-65
2021/10/20 11:36:03;;;;;;;9.80;8.80;;;15.10;1.00;;;;;;5141852;27;20462;-65
2021/10/20 11:38:42;;;;;;;9.57;8.50;;;15.20;99.90;;;;;;5141591;27;20461;-66
2021/10/20 11:41:17;;;;;;;9.83;8.83;;;15.20;99.90;;;;;;5141883;27;20892;-62
2021/10/20 11:43:46;;;;;;;11.07;9.33;;;15.20;1.00;;;;;;5141953;27;20491;-63
2021/10/20 11:46:26;;;;;;;9.60;8.60;;;15.20;1.00;;;;;;5141464;27;20462;-65
2021/10/20 11:49:00;;;;;;;11.00;8.93;;;15.20;99.90;;;;;;5141732;27;20838;-65
2021/10/20 11:51:27;;;;;;;9.23;8.30;;;15.10;99.90;;;;;;5141727;27;20455;-64
2021/10/20 11:53:59;;;;;;;10.20;9.20;;;15.10;99.90;;;;;;5141230;27;20527;-65
2021/10/20 11:56:26;;;;;;;9.50;8.60;;;15.10;99.90;;;;;;5139373;27;20439;-65
2021/10/20 11:58:53;;;;;;;10.37;9.20;;;15.10;2.90;;;;;;5120748;28;20516;-66
2021/10/20 12:01:28;;;;;;;10.53;9.27;;;15.10;1.00;;;;;;5120697;28;20455;-65
2021/10/20 12:03:55;;;;;;;11.33;10.20;;;15.00;1.00;;;;;;5120309;28;20459;-66
2021/10/20 12:06:26;;;;;;;13.67;10.07;;;15.10;1.00;;;;;;5120727;28;20459;-66
2021/10/20 12:08:55;;;;;;;14.03;11.93;;;15.10;1.00;;;;;;5120597;28;20462;-67
2021/10/20 12:11:25;;;;;;;10.87;9.87;;;15.10;43.60;;;;;;5120889;28;20528;-67
2021/10/20 12:13:52;;;;;;;10.93;9.93;;;15.10;1.00;;;;;;5120746;27;20532;-67
2021/10/20 12:16:22;;;;;;;10.17;9.27;;;15.20;1.00;;;;;;5130003;27;20881;-67
2021/10/20 12:18:51;;;;;;;11.50;10.40;;;15.30;1.00;;;;;;5141171;27;20780;-66
2021/10/20 12:21:22;;;;;;;10.40;9.30;;;15.50;1.00;;;;;;5141472;27;20535;-65
2021/10/20 12:23:49;;;;;;;10.57;9.43;;;15.60;99.90;;;;;;5140215;27;20825;-65
2021/10/20 12:26:17;;;;;;;9.70;8.80;;;15.80;1.00;;;;;;5140877;27;20458;-65
2021/10/20 12:28:45;;;;;;;10.37;9.47;;;16.00;99.90;;;;;;5140513;27;20539;-64
2021/10/20 12:31:18;;;;;;;10.70;9.57;;;16.20;1.00;;;;;;5141225;27;20561;-64
2021/10/20 12:33:46;;;;;;;9.73;8.73;;;16.40;1.00;;;;;;5140919;27;20520;-64
2021/10/20 12:36:16;;;;;;;9.10;8.13;;;16.60;99.90;;;;;;5140961;27;20523;-64
2021/10/20 12:38:46;;;;;;;12.40;10.73;;;16.90;32.60;;;;;;5140698;27;20463;-66
2021/10/20 12:41:16;;;;;;;11.33;9.20;;;16.90;1.00;;;;;;5140832;27;20458;-63
2021/10/20 12:43:47;;;;;;;9.77;8.77;;;16.70;1.00;;;;;;5140948;27;20494;-64
2021/10/20 12:46:20;;;;;;;9.77;8.50;;;16.60;1.00;;;;;;5140783;27;20748;-64
2021/10/20 12:48:50;;;;;;;11.10;9.40;;;16.50;1.00;;;;;;5140263;27;20466;-64
2021/10/20 12:51:20;;;;;;;9.90;8.30;;;16.30;20.70;;;;;;5140610;27;20458;-63
2021/10/20 12:53:57;;;;;;;15.40;9.27;;;16.30;34.90;;;;;;5140537;27;20455;-63
2021/10/20 12:56:25;;;;;;;9.70;8.73;;;16.20;99.90;;;;;;5140592;27;20480;-64
2021/10/20 12:59:13;;;;;;;9.77;8.17;;;16.20;22.60;;;;;;5125875;27;20513;-63